Tooele, UT

1:53 PM MDT on April 27, 2017 (GMT -0600)
Vorwaller | | Change Station

Elev 4318 ft 40.54 °N, 112.30 °W | Updated 14 seconds ago

Mostly Cloudy
Mostly Cloudy
46.9 °F
Feels Like 45 °F
N
5.0
Wind Variable Wind from ENE

Today
High -- | Low -- °F
--% Chance of Precip.
Yesterday
High -- | Low -- °F
Precip. -- in
Pressure 29.84 in
Visibility 10.0 miles
Clouds Scattered Clouds 6500 ft
Scattered Clouds 7000 ft
Windchill 45 °F
Dew Point 26 °F
Humidity 44%
Rainfall 0.36 in
Snow Depth Not available.
6:32 AM 8:21 PM
Waxing Crescent, 3% visible
METAR KU42 271935Z AUTO 31014G23KT 10SM SCT065 SCT070 10/02 A2984 RMK AO1 T00960017
Pressure 29.84 in
Visibility 10.0 miles
Clouds Scattered Clouds 6500 ft
Scattered Clouds 7000 ft
Windchill 45 °F
Dew Point 26 °F
Humidity 44%
Rainfall 0.36 in
Snow Depth Not available.
6:32 AM 8:21 PM
Waxing Crescent, 3% visible
METAR KU42 271935Z AUTO 31014G23KT 10SM SCT065 SCT070 10/02 A2984 RMK AO1 T00960017

Get Severe Weather Alerts

Thanks for signing up!

Be on the lookout for a verification email in your inbox.

You'll start receiving the daily forecast at 8 AM.

×

10-Day Weather Forecast

Almanac

Astronomy

Apr. 27, 2017 Rise Set
Actual Time
Civil Twilight
Nautical Twilight
Astronomical Twilight
Moon
Length of Visible Light
Length of Day
Tomorrow will be .
, % of the Moon is Illuminated

Today's Extremes

State Highs State Lows

Community

WunderPhotos

WunderBlog® & News

Nearby

Air Quality

  Air Quality AQ Index Pollutant
Not available.

Snow Depth

Station Depth Elevation

Earthquake Activity

City Distance Mag. Time & Date
Minimum magnitude displayed is 2.5.

Coastal Water Temperatures

Place Temperature

Stations

Nearby Weather Stations

Station Location Temp. Windchill Dew Point Humidity Wind Precip. Elev Updated Type
                   

Watches & Warnings

There are currently no watches in effect.